sensor_id;sensor_type;location;lat;lon;timestamp;P1;durP1;ratioP1;P2;durP2;ratioP2
41627;SDS011;27321;50.816;6.054;2023-07-29T00:01:05;1.15;;;0.60;;
41627;SDS011;27321;50.816;6.054;2023-07-29T00:04:07;0.50;;;0.50;;
41627;SDS011;27321;50.816;6.054;2023-07-29T00:07:09;0.70;;;0.50;;
41627;SDS011;27321;50.816;6.054;2023-07-29T00:10:10;0.60;;;0.50;;
41627;SDS011;27321;50.816;6.054;2023-07-29T00:13:11;0.60;;;0.60;;
41627;SDS011;27321;50.816;6.054;2023-07-29T00:16:12;1.75;;;0.60;;
41627;SDS011;27321;50.816;6.054;2023-07-29T00:19:18;0.50;;;0.50;;
41627;SDS011;27321;50.816;6.054;2023-07-29T00:22:20;0.60;;;0.60;;
41627;SDS011;27321;50.816;6.054;2023-07-29T00:25:22;0.77;;;0.43;;
41627;SDS011;27321;50.816;6.054;2023-07-29T00:28:23;0.52;;;0.40;;
41627;SDS011;27321;50.816;6.054;2023-07-29T00:31:24;3.50;;;0.68;;
41627;SDS011;27321;50.816;6.054;2023-07-29T00:34:25;0.70;;;0.70;;
41627;SDS011;27321;50.816;6.054;2023-07-29T00:37:26;1.13;;;0.68;;
41627;SDS011;27321;50.816;6.054;2023-07-29T00:40:28;0.82;;;0.70;;
41627;SDS011;27321;50.816;6.054;2023-07-29T00:43:30;0.60;;;0.60;;
41627;SDS011;27321;50.816;6.054;2023-07-29T00:46:32;0.68;;;0.68;;
41627;SDS011;27321;50.816;6.054;2023-07-29T00:49:34;1.30;;;0.50;;
41627;SDS011;27321;50.816;6.054;2023-07-29T00:52:36;2.03;;;0.70;;
41627;SDS011;27321;50.816;6.054;2023-07-29T00:55:37;0.68;;;0.68;;
41627;SDS011;27321;50.816;6.054;2023-07-29T00:58:38;1.63;;;0.70;;
41627;SDS011;27321;50.816;6.054;2023-07-29T01:01:40;0.63;;;0.60;;
41627;SDS011;27321;50.816;6.054;2023-07-29T01:04:41;0.73;;;0.52;;
41627;SDS011;27321;50.816;6.054;2023-07-29T01:14:40;1.08;;;0.68;;
41627;SDS011;27321;50.816;6.054;2023-07-29T01:17:48;1.85;;;0.60;;
41627;SDS011;27321;50.816;6.054;2023-07-29T01:20:54;2.33;;;0.70;;
41627;SDS011;27321;50.816;6.054;2023-07-29T01:24:00;0.70;;;0.70;;
41627;SDS011;27321;50.816;6.054;2023-07-29T01:27:01;0.80;;;0.70;;
41627;SDS011;27321;50.816;6.054;2023-07-29T01:30:05;0.95;;;0.65;;
41627;SDS011;27321;50.816;6.054;2023-07-29T01:33:26;0.60;;;0.60;;
41627;SDS011;27321;50.816;6.054;2023-07-29T01:36:31;1.33;;;0.60;;
41627;SDS011;27321;50.816;6.054;2023-07-29T01:39:35;0.70;;;0.70;;
41627;SDS011;27321;50.816;6.054;2023-07-29T01:42:38;0.93;;;0.68;;
41627;SDS011;27321;50.816;6.054;2023-07-29T01:45:39;2.83;;;0.75;;
41627;SDS011;27321;50.816;6.054;2023-07-29T01:51:42;0.55;;;0.55;;
41627;SDS011;27321;50.816;6.054;2023-07-29T01:54:43;0.73;;;0.73;;
41627;SDS011;27321;50.816;6.054;2023-07-29T01:57:45;1.15;;;0.88;;
41627;SDS011;27321;50.816;6.054;2023-07-29T02:00:47;0.80;;;0.80;;
41627;SDS011;27321;50.816;6.054;2023-07-29T02:03:48;1.15;;;0.73;;
41627;SDS011;27321;50.816;6.054;2023-07-29T02:06:54;0.93;;;0.88;;
41627;SDS011;27321;50.816;6.054;2023-07-29T02:09:55;0.60;;;0.60;;
41627;SDS011;27321;50.816;6.054;2023-07-29T02:12:56;1.55;;;0.77;;
41627;SDS011;27321;50.816;6.054;2023-07-29T02:15:57;1.73;;;0.98;;
41627;SDS011;27321;50.816;6.054;2023-07-29T02:18:58;1.60;;;1.02;;
41627;SDS011;27321;50.816;6.054;2023-07-29T02:22:00;1.10;;;0.85;;
41627;SDS011;27321;50.816;6.054;2023-07-29T02:25:01;1.75;;;0.90;;
41627;SDS011;27321;50.816;6.054;2023-07-29T02:28:03;0.82;;;0.82;;
41627;SDS011;27321;50.816;6.054;2023-07-29T02:31:20;0.90;;;0.85;;
41627;SDS011;27321;50.816;6.054;2023-07-29T02:34:23;1.15;;;1.00;;
41627;SDS011;27321;50.816;6.054;2023-07-29T02:37:25;2.15;;;1.08;;
41627;SDS011;27321;50.816;6.054;2023-07-29T02:40:25;1.30;;;1.25;;
41627;SDS011;27321;50.816;6.054;2023-07-29T02:43:27;1.27;;;1.00;;
41627;SDS011;27321;50.816;6.054;2023-07-29T02:46:28;3.20;;;1.00;;
41627;SDS011;27321;50.816;6.054;2023-07-29T02:49:29;1.05;;;1.05;;
41627;SDS011;27321;50.816;6.054;2023-07-29T02:52:30;2.13;;;1.30;;
41627;SDS011;27321;50.816;6.054;2023-07-29T02:55:31;1.70;;;1.20;;
41627;SDS011;27321;50.816;6.054;2023-07-29T02:58:32;2.55;;;1.20;;
41627;SDS011;27321;50.816;6.054;2023-07-29T03:01:33;1.75;;;1.33;;
41627;SDS011;27321;50.816;6.054;2023-07-29T03:04:35;3.63;;;1.40;;
41627;SDS011;27321;50.816;6.054;2023-07-29T03:07:36;1.70;;;1.38;;
41627;SDS011;27321;50.816;6.054;2023-07-29T03:10:37;1.88;;;1.17;;
41627;SDS011;27321;50.816;6.054;2023-07-29T03:13:38;1.33;;;1.23;;
41627;SDS011;27321;50.816;6.054;2023-07-29T03:16:39;1.35;;;1.20;;
41627;SDS011;27321;50.816;6.054;2023-07-29T03:19:40;1.70;;;1.60;;
41627;SDS011;27321;50.816;6.054;2023-07-29T03:22:41;1.80;;;1.70;;
41627;SDS011;27321;50.816;6.054;2023-07-29T03:25:42;1.58;;;1.48;;
41627;SDS011;27321;50.816;6.054;2023-07-29T03:28:43;1.90;;;1.80;;
41627;SDS011;27321;50.816;6.054;2023-07-29T03:31:44;5.38;;;1.50;;
41627;SDS011;27321;50.816;6.054;2023-07-29T03:34:45;1.80;;;1.70;;
41627;SDS011;27321;50.816;6.054;2023-07-29T03:37:46;1.23;;;1.20;;
41627;SDS011;27321;50.816;6.054;2023-07-29T03:40:48;1.70;;;1.60;;
41627;SDS011;27321;50.816;6.054;2023-07-29T03:43:49;1.45;;;1.35;;
41627;SDS011;27321;50.816;6.054;2023-07-29T03:46:50;2.50;;;1.63;;
41627;SDS011;27321;50.816;6.054;2023-07-29T03:49:51;1.88;;;1.77;;
41627;SDS011;27321;50.816;6.054;2023-07-29T03:52:56;1.50;;;1.40;;
41627;SDS011;27321;50.816;6.054;2023-07-29T03:55:57;2.70;;;2.00;;
41627;SDS011;27321;50.816;6.054;2023-07-29T03:59:04;1.95;;;1.45;;
41627;SDS011;27321;50.816;6.054;2023-07-29T04:02:06;3.70;;;2.00;;
41627;SDS011;27321;50.816;6.054;2023-07-29T04:05:07;2.08;;;1.92;;
41627;SDS011;27321;50.816;6.054;2023-07-29T04:11:10;2.50;;;1.63;;
41627;SDS011;27321;50.816;6.054;2023-07-29T04:14:11;1.60;;;1.50;;
41627;SDS011;27321;50.816;6.054;2023-07-29T04:17:12;3.35;;;2.28;;
41627;SDS011;27321;50.816;6.054;2023-07-29T04:20:13;1.70;;;1.60;;
41627;SDS011;27321;50.816;6.054;2023-07-29T04:23:14;1.65;;;1.55;;
41627;SDS011;27321;50.816;6.054;2023-07-29T04:26:15;1.30;;;1.23;;
41627;SDS011;27321;50.816;6.054;2023-07-29T04:29:16;1.52;;;1.42;;
41627;SDS011;27321;50.816;6.054;2023-07-29T04:32:17;2.85;;;1.77;;
41627;SDS011;27321;50.816;6.054;2023-07-29T04:35:18;1.63;;;1.50;;
41627;SDS011;27321;50.816;6.054;2023-07-29T04:38:19;2.28;;;1.75;;
41627;SDS011;27321;50.816;6.054;2023-07-29T04:41:20;3.10;;;2.35;;
41627;SDS011;27321;50.816;6.054;2023-07-29T04:44:21;2.95;;;2.17;;
41627;SDS011;27321;50.816;6.054;2023-07-29T04:47:23;2.17;;;2.08;;
41627;SDS011;27321;50.816;6.054;2023-07-29T04:50:24;1.90;;;1.73;;
41627;SDS011;27321;50.816;6.054;2023-07-29T04:53:25;2.15;;;1.67;;
41627;SDS011;27321;50.816;6.054;2023-07-29T04:56:26;3.88;;;2.30;;
41627;SDS011;27321;50.816;6.054;2023-07-29T04:59:27;3.25;;;2.30;;
41627;SDS011;27321;50.816;6.054;2023-07-29T05:02:28;2.35;;;1.83;;
41627;SDS011;27321;50.816;6.054;2023-07-29T05:05:30;1.95;;;1.75;;
41627;SDS011;27321;50.816;6.054;2023-07-29T05:08:31;2.38;;;1.50;;
41627;SDS011;27321;50.816;6.054;2023-07-29T05:11:32;5.18;;;1.85;;
41627;SDS011;27321;50.816;6.054;2023-07-29T05:14:33;3.28;;;2.22;;
41627;SDS011;27321;50.816;6.054;2023-07-29T05:17:34;3.00;;;2.70;;
41627;SDS011;27321;50.816;6.054;2023-07-29T05:20:35;2.40;;;2.20;;
41627;SDS011;27321;50.816;6.054;2023-07-29T05:23:36;3.28;;;2.97;;
41627;SDS011;27321;50.816;6.054;2023-07-29T05:26:37;3.30;;;3.00;;
41627;SDS011;27321;50.816;6.054;2023-07-29T05:29:38;2.65;;;2.40;;
41627;SDS011;27321;50.816;6.054;2023-07-29T05:32:39;2.20;;;1.85;;
41627;SDS011;27321;50.816;6.054;2023-07-29T05:35:40;2.58;;;2.38;;
41627;SDS011;27321;50.816;6.054;2023-07-29T05:41:42;2.40;;;1.90;;
41627;SDS011;27321;50.816;6.054;2023-07-29T05:44:43;2.10;;;1.90;;
41627;SDS011;27321;50.816;6.054;2023-07-29T05:47:46;2.25;;;1.90;;
41627;SDS011;27321;50.816;6.054;2023-07-29T05:50:47;2.40;;;1.67;;
41627;SDS011;27321;50.816;6.054;2023-07-29T05:53:49;2.10;;;1.70;;
41627;SDS011;27321;50.816;6.054;2023-07-29T05:56:50;3.78;;;1.17;;
41627;SDS011;27321;50.816;6.054;2023-07-29T05:59:51;1.52;;;1.20;;
41627;SDS011;27321;50.816;6.054;2023-07-29T06:02:52;1.50;;;1.20;;
41627;SDS011;27321;50.816;6.054;2023-07-29T06:05:55;1.20;;;1.08;;
41627;SDS011;27321;50.816;6.054;2023-07-29T06:08:56;2.13;;;1.65;;
41627;SDS011;27321;50.816;6.054;2023-07-29T06:11:58;2.40;;;1.40;;
41627;SDS011;27321;50.816;6.054;2023-07-29T06:14:59;2.15;;;1.70;;
41627;SDS011;27321;50.816;6.054;2023-07-29T06:18:00;2.22;;;1.63;;
41627;SDS011;27321;50.816;6.054;2023-07-29T06:21:01;1.65;;;1.23;;
41627;SDS011;27321;50.816;6.054;2023-07-29T06:24:02;2.22;;;1.33;;
41627;SDS011;27321;50.816;6.054;2023-07-29T06:27:03;1.40;;;1.30;;
41627;SDS011;27321;50.816;6.054;2023-07-29T06:30:05;2.33;;;1.63;;
41627;SDS011;27321;50.816;6.054;2023-07-29T06:33:06;1.55;;;1.45;;
41627;SDS011;27321;50.816;6.054;2023-07-29T06:36:07;1.20;;;1.10;;
41627;SDS011;27321;50.816;6.054;2023-07-29T06:39:08;1.63;;;1.33;;
41627;SDS011;27321;50.816;6.054;2023-07-29T06:42:09;1.40;;;1.15;;
41627;SDS011;27321;50.816;6.054;2023-07-29T06:45:10;1.63;;;1.40;;
41627;SDS011;27321;50.816;6.054;2023-07-29T06:48:11;2.25;;;1.30;;
41627;SDS011;27321;50.816;6.054;2023-07-29T06:51:12;1.77;;;1.48;;
41627;SDS011;27321;50.816;6.054;2023-07-29T06:54:15;4.60;;;1.17;;
41627;SDS011;27321;50.816;6.054;2023-07-29T06:57:17;3.25;;;1.40;;
41627;SDS011;27321;50.816;6.054;2023-07-29T07:00:18;1.30;;;1.20;;
41627;SDS011;27321;50.816;6.054;2023-07-29T07:03:19;2.20;;;1.80;;
41627;SDS011;27321;50.816;6.054;2023-07-29T07:06:21;1.75;;;1.13;;
41627;SDS011;27321;50.816;6.054;2023-07-29T07:09:24;1.23;;;1.13;;
41627;SDS011;27321;50.816;6.054;2023-07-29T07:12:25;2.58;;;1.25;;
41627;SDS011;27321;50.816;6.054;2023-07-29T07:15:26;1.25;;;1.08;;
41627;SDS011;27321;50.816;6.054;2023-07-29T07:18:27;2.53;;;1.73;;
41627;SDS011;27321;50.816;6.054;2023-07-29T07:21:28;2.20;;;1.45;;
41627;SDS011;27321;50.816;6.054;2023-07-29T07:24:29;4.68;;;1.33;;
41627;SDS011;27321;50.816;6.054;2023-07-29T07:27:30;1.52;;;1.38;;
41627;SDS011;27321;50.816;6.054;2023-07-29T07:30:31;1.50;;;1.40;;
41627;SDS011;27321;50.816;6.054;2023-07-29T07:33:32;1.90;;;1.42;;
41627;SDS011;27321;50.816;6.054;2023-07-29T07:36:33;2.35;;;1.17;;
41627;SDS011;27321;50.816;6.054;2023-07-29T07:39:34;2.30;;;1.15;;
41627;SDS011;27321;50.816;6.054;2023-07-29T07:42:35;0.90;;;0.90;;
41627;SDS011;27321;50.816;6.054;2023-07-29T07:45:36;2.63;;;1.05;;
41627;SDS011;27321;50.816;6.054;2023-07-29T07:48:37;2.80;;;1.10;;
41627;SDS011;27321;50.816;6.054;2023-07-29T07:51:38;2.13;;;1.23;;
41627;SDS011;27321;50.816;6.054;2023-07-29T07:54:40;1.17;;;1.05;;
41627;SDS011;27321;50.816;6.054;2023-07-29T07:57:41;1.42;;;0.82;;
41627;SDS011;27321;50.816;6.054;2023-07-29T08:00:42;0.95;;;0.95;;
41627;SDS011;27321;50.816;6.054;2023-07-29T08:03:43;1.20;;;0.80;;
41627;SDS011;27321;50.816;6.054;2023-07-29T08:06:44;1.25;;;1.13;;
41627;SDS011;27321;50.816;6.054;2023-07-29T08:09:45;1.88;;;1.10;;
41627;SDS011;27321;50.816;6.054;2023-07-29T08:12:46;1.10;;;0.93;;
41627;SDS011;27321;50.816;6.054;2023-07-29T08:15:47;0.68;;;0.68;;
41627;SDS011;27321;50.816;6.054;2023-07-29T08:18:49;0.90;;;0.88;;
41627;SDS011;27321;50.816;6.054;2023-07-29T08:21:50;1.48;;;1.20;;
41627;SDS011;27321;50.816;6.054;2023-07-29T08:24:51;2.85;;;0.90;;
41627;SDS011;27321;50.816;6.054;2023-07-29T08:27:52;0.90;;;0.90;;
41627;SDS011;27321;50.816;6.054;2023-07-29T08:30:53;1.67;;;0.85;;
41627;SDS011;27321;50.816;6.054;2023-07-29T08:36:56;2.58;;;1.38;;
41627;SDS011;27321;50.816;6.054;2023-07-29T08:39:57;0.88;;;0.88;;
41627;SDS011;27321;50.816;6.054;2023-07-29T08:42:58;1.63;;;0.70;;
41627;SDS011;27321;50.816;6.054;2023-07-29T08:46:04;1.27;;;1.10;;
41627;SDS011;27321;50.816;6.054;2023-07-29T08:49:07;1.20;;;0.90;;
41627;SDS011;27321;50.816;6.054;2023-07-29T08:52:08;1.40;;;1.30;;
41627;SDS011;27321;50.816;6.054;2023-07-29T08:55:14;0.77;;;0.73;;
41627;SDS011;27321;50.816;6.054;2023-07-29T08:59:26;2.05;;;1.13;;
41627;SDS011;27321;50.816;6.054;2023-07-29T09:02:29;1.88;;;1.15;;
41627;SDS011;27321;50.816;6.054;2023-07-29T09:05:30;1.10;;;1.00;;
41627;SDS011;27321;50.816;6.054;2023-07-29T09:08:31;3.30;;;1.27;;
41627;SDS011;27321;50.816;6.054;2023-07-29T09:11:34;1.35;;;0.95;;
41627;SDS011;27321;50.816;6.054;2023-07-29T09:14:35;1.75;;;1.23;;
41627;SDS011;27321;50.816;6.054;2023-07-29T09:17:36;1.75;;;0.90;;
41627;SDS011;27321;50.816;6.054;2023-07-29T09:20:37;0.82;;;0.80;;
41627;SDS011;27321;50.816;6.054;2023-07-29T09:23:39;1.55;;;0.90;;
41627;SDS011;27321;50.816;6.054;2023-07-29T09:26:50;2.08;;;1.20;;
41627;SDS011;27321;50.816;6.054;2023-07-29T09:29:54;0.95;;;0.90;;
41627;SDS011;27321;50.816;6.054;2023-07-29T09:32:56;0.95;;;0.90;;
41627;SDS011;27321;50.816;6.054;2023-07-29T09:35:58;0.80;;;0.80;;
41627;SDS011;27321;50.816;6.054;2023-07-29T09:38:59;1.02;;;0.93;;
41627;SDS011;27321;50.816;6.054;2023-07-29T09:45:01;2.38;;;1.02;;
41627;SDS011;27321;50.816;6.054;2023-07-29T09:48:03;3.05;;;1.20;;
41627;SDS011;27321;50.816;6.054;2023-07-29T09:51:09;1.00;;;0.85;;
41627;SDS011;27321;50.816;6.054;2023-07-29T09:54:15;1.58;;;1.00;;
41627;SDS011;27321;50.816;6.054;2023-07-29T09:57:18;1.75;;;1.15;;
41627;SDS011;27321;50.816;6.054;2023-07-29T10:00:19;1.60;;;1.00;;
41627;SDS011;27321;50.816;6.054;2023-07-29T10:03:21;0.80;;;0.80;;
41627;SDS011;27321;50.816;6.054;2023-07-29T10:06:22;0.85;;;0.82;;
41627;SDS011;27321;50.816;6.054;2023-07-29T10:09:27;1.25;;;0.80;;
41627;SDS011;27321;50.816;6.054;2023-07-29T10:12:30;1.17;;;0.90;;
41627;SDS011;27321;50.816;6.054;2023-07-29T10:15:32;1.10;;;1.08;;
41627;SDS011;27321;50.816;6.054;2023-07-29T10:18:33;2.35;;;1.17;;
41627;SDS011;27321;50.816;6.054;2023-07-29T10:21:36;3.35;;;1.23;;
41627;SDS011;27321;50.816;6.054;2023-07-29T10:24:40;1.35;;;1.25;;
41627;SDS011;27321;50.816;6.054;2023-07-29T10:27:45;2.85;;;1.30;;
41627;SDS011;27321;50.816;6.054;2023-07-29T10:30:57;1.40;;;1.10;;
41627;SDS011;27321;50.816;6.054;2023-07-29T10:33:59;1.52;;;1.20;;
41627;SDS011;27321;50.816;6.054;2023-07-29T10:37:00;0.90;;;0.90;;
41627;SDS011;27321;50.816;6.054;2023-07-29T10:43:10;1.00;;;1.00;;
41627;SDS011;27321;50.816;6.054;2023-07-29T10:46:17;1.17;;;1.10;;
41627;SDS011;27321;50.816;6.054;2023-07-29T10:49:23;1.20;;;1.10;;
41627;SDS011;27321;50.816;6.054;2023-07-29T10:52:42;2.42;;;1.48;;
41627;SDS011;27321;50.816;6.054;2023-07-29T10:55:43;1.40;;;1.30;;
41627;SDS011;27321;50.816;6.054;2023-07-29T10:58:44;1.30;;;1.17;;
41627;SDS011;27321;50.816;6.054;2023-07-29T11:01:51;1.30;;;1.08;;
41627;SDS011;27321;50.816;6.054;2023-07-29T11:04:56;1.33;;;1.20;;
41627;SDS011;27321;50.816;6.054;2023-07-29T11:07:58;1.30;;;1.20;;
41627;SDS011;27321;50.816;6.054;2023-07-29T11:11:22;1.95;;;1.13;;
41627;SDS011;27321;50.816;6.054;2023-07-29T11:14:23;1.10;;;0.82;;
41627;SDS011;27321;50.816;6.054;2023-07-29T11:17:25;1.33;;;1.20;;
41627;SDS011;27321;50.816;6.054;2023-07-29T11:20:30;0.77;;;0.77;;
41627;SDS011;27321;50.816;6.054;2023-07-29T11:23:34;1.40;;;1.30;;
41627;SDS011;27321;50.816;6.054;2023-07-29T11:26:36;1.33;;;1.23;;
41627;SDS011;27321;50.816;6.054;2023-07-29T11:29:38;1.27;;;1.15;;
41627;SDS011;27321;50.816;6.054;2023-07-29T11:32:39;1.33;;;1.13;;
41627;SDS011;27321;50.816;6.054;2023-07-29T11:35:41;2.67;;;1.30;;
41627;SDS011;27321;50.816;6.054;2023-07-29T11:38:42;1.30;;;1.20;;
41627;SDS011;27321;50.816;6.054;2023-07-29T11:41:45;2.35;;;1.08;;
41627;SDS011;27321;50.816;6.054;2023-07-29T11:44:46;1.58;;;1.08;;
41627;SDS011;27321;50.816;6.054;2023-07-29T11:47:48;1.05;;;0.85;;
41627;SDS011;27321;50.816;6.054;2023-07-29T11:50:49;1.33;;;1.10;;
41627;SDS011;27321;50.816;6.054;2023-07-29T11:53:50;1.55;;;1.10;;
41627;SDS011;27321;50.816;6.054;2023-07-29T11:56:51;1.27;;;1.17;;
41627;SDS011;27321;50.816;6.054;2023-07-29T12:02:53;2.58;;;1.40;;
41627;SDS011;27321;50.816;6.054;2023-07-29T12:05:55;1.33;;;1.10;;
41627;SDS011;27321;50.816;6.054;2023-07-29T12:08:56;1.35;;;1.17;;
41627;SDS011;27321;50.816;6.054;2023-07-29T12:11:57;1.40;;;1.05;;
41627;SDS011;27321;50.816;6.054;2023-07-29T12:15:00;1.20;;;1.15;;
41627;SDS011;27321;50.816;6.054;2023-07-29T12:18:01;1.30;;;1.10;;
41627;SDS011;27321;50.816;6.054;2023-07-29T12:21:02;1.27;;;1.15;;
41627;SDS011;27321;50.816;6.054;2023-07-29T12:24:06;1.10;;;1.00;;
41627;SDS011;27321;50.816;6.054;2023-07-29T12:27:10;0.80;;;0.80;;
41627;SDS011;27321;50.816;6.054;2023-07-29T12:30:13;0.80;;;0.80;;
41627;SDS011;27321;50.816;6.054;2023-07-29T12:36:49;1.33;;;1.23;;
41627;SDS011;27321;50.816;6.054;2023-07-29T12:39:51;1.45;;;1.35;;
41627;SDS011;27321;50.816;6.054;2023-07-29T12:42:52;2.17;;;1.30;;
41627;SDS011;27321;50.816;6.054;2023-07-29T12:45:54;1.50;;;1.40;;
41627;SDS011;27321;50.816;6.054;2023-07-29T12:48:55;1.70;;;1.60;;
41627;SDS011;27321;50.816;6.054;2023-07-29T12:51:56;1.30;;;1.17;;
41627;SDS011;27321;50.816;6.054;2023-07-29T12:54:58;2.03;;;1.55;;
41627;SDS011;27321;50.816;6.054;2023-07-29T12:57:59;1.70;;;1.50;;
41627;SDS011;27321;50.816;6.054;2023-07-29T13:01:01;2.53;;;1.80;;
41627;SDS011;27321;50.816;6.054;2023-07-29T13:04:01;2.92;;;1.70;;
41627;SDS011;27321;50.816;6.054;2023-07-29T13:07:03;2.50;;;1.27;;
41627;SDS011;27321;50.816;6.054;2023-07-29T13:10:05;2.00;;;1.45;;
41627;SDS011;27321;50.816;6.054;2023-07-29T13:16:07;1.77;;;1.40;;
41627;SDS011;27321;50.816;6.054;2023-07-29T13:19:08;2.22;;;1.23;;
41627;SDS011;27321;50.816;6.054;2023-07-29T13:22:09;1.38;;;1.08;;
41627;SDS011;27321;50.816;6.054;2023-07-29T13:25:10;1.13;;;1.02;;
41627;SDS011;27321;50.816;6.054;2023-07-29T13:31:16;5.90;;;3.88;;
41627;SDS011;27321;50.816;6.054;2023-07-29T13:34:17;9.75;;;5.30;;
41627;SDS011;27321;50.816;6.054;2023-07-29T13:37:18;7.90;;;4.60;;
41627;SDS011;27321;50.816;6.054;2023-07-29T13:40:19;6.13;;;3.55;;
41627;SDS011;27321;50.816;6.054;2023-07-29T13:43:21;3.03;;;2.10;;
41627;SDS011;27321;50.816;6.054;2023-07-29T13:46:24;1.40;;;1.30;;
41627;SDS011;27321;50.816;6.054;2023-07-29T13:49:25;1.27;;;1.13;;
41627;SDS011;27321;50.816;6.054;2023-07-29T13:52:26;1.65;;;1.17;;
41627;SDS011;27321;50.816;6.054;2023-07-29T13:55:27;1.50;;;1.40;;
41627;SDS011;27321;50.816;6.054;2023-07-29T13:58:28;2.15;;;1.30;;
41627;SDS011;27321;50.816;6.054;2023-07-29T14:01:29;1.15;;;1.05;;
41627;SDS011;27321;50.816;6.054;2023-07-29T14:04:30;2.53;;;1.20;;
41627;SDS011;27321;50.816;6.054;2023-07-29T14:07:32;1.38;;;1.27;;
41627;SDS011;27321;50.816;6.054;2023-07-29T14:10:33;1.40;;;1.23;;
41627;SDS011;27321;50.816;6.054;2023-07-29T14:13:34;2.35;;;1.48;;
41627;SDS011;27321;50.816;6.054;2023-07-29T14:16:35;1.55;;;1.23;;
41627;SDS011;27321;50.816;6.054;2023-07-29T14:19:39;3.78;;;1.60;;
41627;SDS011;27321;50.816;6.054;2023-07-29T14:22:40;2.17;;;1.60;;
41627;SDS011;27321;50.816;6.054;2023-07-29T14:25:41;1.45;;;1.35;;
41627;SDS011;27321;50.816;6.054;2023-07-29T14:28:42;2.58;;;1.45;;
41627;SDS011;27321;50.816;6.054;2023-07-29T14:31:43;3.47;;;1.70;;
41627;SDS011;27321;50.816;6.054;2023-07-29T14:34:44;2.45;;;1.65;;
41627;SDS011;27321;50.816;6.054;2023-07-29T14:37:45;3.70;;;1.58;;
41627;SDS011;27321;50.816;6.054;2023-07-29T14:40:47;1.60;;;1.50;;
41627;SDS011;27321;50.816;6.054;2023-07-29T14:43:51;1.50;;;1.40;;
41627;SDS011;27321;50.816;6.054;2023-07-29T14:46:54;2.15;;;1.60;;
41627;SDS011;27321;50.816;6.054;2023-07-29T14:49:55;4.72;;;1.30;;
41627;SDS011;27321;50.816;6.054;2023-07-29T14:52:56;1.30;;;1.20;;
41627;SDS011;27321;50.816;6.054;2023-07-29T14:55:57;1.45;;;1.13;;
41627;SDS011;27321;50.816;6.054;2023-07-29T14:58:58;2.30;;;1.42;;
41627;SDS011;27321;50.816;6.054;2023-07-29T15:01:59;2.28;;;1.52;;
41627;SDS011;27321;50.816;6.054;2023-07-29T15:05:00;2.10;;;1.80;;
41627;SDS011;27321;50.816;6.054;2023-07-29T15:08:01;2.60;;;1.90;;
41627;SDS011;27321;50.816;6.054;2023-07-29T15:11:02;2.45;;;1.30;;
41627;SDS011;27321;50.816;6.054;2023-07-29T15:14:04;1.25;;;1.15;;
41627;SDS011;27321;50.816;6.054;2023-07-29T15:17:05;1.30;;;1.20;;
41627;SDS011;27321;50.816;6.054;2023-07-29T15:20:07;1.50;;;1.40;;
41627;SDS011;27321;50.816;6.054;2023-07-29T15:23:08;1.45;;;1.35;;
41627;SDS011;27321;50.816;6.054;2023-07-29T15:26:09;1.50;;;1.40;;
41627;SDS011;27321;50.816;6.054;2023-07-29T15:29:10;2.47;;;1.40;;
41627;SDS011;27321;50.816;6.054;2023-07-29T15:32:11;1.65;;;1.55;;
41627;SDS011;27321;50.816;6.054;2023-07-29T15:35:12;1.27;;;1.17;;
41627;SDS011;27321;50.816;6.054;2023-07-29T15:38:13;1.65;;;1.55;;
41627;SDS011;27321;50.816;6.054;2023-07-29T15:41:14;1.40;;;1.27;;
41627;SDS011;27321;50.816;6.054;2023-07-29T15:44:15;2.08;;;1.50;;
41627;SDS011;27321;50.816;6.054;2023-07-29T15:50:18;0.98;;;0.90;;
41627;SDS011;27321;50.816;6.054;2023-07-29T15:53:19;1.20;;;1.10;;
41627;SDS011;27321;50.816;6.054;2023-07-29T15:56:20;2.63;;;2.03;;
41627;SDS011;27321;50.816;6.054;2023-07-29T15:59:21;1.80;;;1.70;;
41627;SDS011;27321;50.816;6.054;2023-07-29T16:02:26;1.48;;;1.38;;
41627;SDS011;27321;50.816;6.054;2023-07-29T16:05:27;7.32;;;2.20;;
41627;SDS011;27321;50.816;6.054;2023-07-29T16:11:29;1.75;;;1.65;;
41627;SDS011;27321;50.816;6.054;2023-07-29T16:14:30;1.83;;;1.73;;
41627;SDS011;27321;50.816;6.054;2023-07-29T16:17:31;2.38;;;1.95;;
41627;SDS011;27321;50.816;6.054;2023-07-29T16:20:32;1.90;;;1.63;;
41627;SDS011;27321;50.816;6.054;2023-07-29T16:23:33;1.70;;;1.50;;
41627;SDS011;27321;50.816;6.054;2023-07-29T16:26:34;1.50;;;1.40;;
41627;SDS011;27321;50.816;6.054;2023-07-29T16:29:36;3.97;;;1.63;;
41627;SDS011;27321;50.816;6.054;2023-07-29T16:32:36;1.50;;;1.40;;
41627;SDS011;27321;50.816;6.054;2023-07-29T16:35:37;2.88;;;1.67;;
41627;SDS011;27321;50.816;6.054;2023-07-29T16:41:39;2.35;;;1.90;;
41627;SDS011;27321;50.816;6.054;2023-07-29T16:44:40;1.70;;;1.60;;
41627;SDS011;27321;50.816;6.054;2023-07-29T16:47:41;1.55;;;1.45;;
41627;SDS011;27321;50.816;6.054;2023-07-29T16:53:43;1.77;;;1.50;;
41627;SDS011;27321;50.816;6.054;2023-07-29T16:59:47;4.55;;;2.05;;
41627;SDS011;27321;50.816;6.054;2023-07-29T17:02:48;2.80;;;1.77;;
41627;SDS011;27321;50.816;6.054;2023-07-29T17:05:48;2.88;;;1.85;;
41627;SDS011;27321;50.816;6.054;2023-07-29T17:08:56;1.60;;;1.50;;
41627;SDS011;27321;50.816;6.054;2023-07-29T17:11:56;1.45;;;1.35;;
41627;SDS011;27321;50.816;6.054;2023-07-29T17:14:59;1.55;;;1.45;;
41627;SDS011;27321;50.816;6.054;2023-07-29T17:18:02;2.67;;;1.70;;
41627;SDS011;27321;50.816;6.054;2023-07-29T17:21:03;5.47;;;2.33;;
41627;SDS011;27321;50.816;6.054;2023-07-29T17:24:04;2.67;;;1.55;;
41627;SDS011;27321;50.816;6.054;2023-07-29T17:27:05;1.88;;;1.73;;
41627;SDS011;27321;50.816;6.054;2023-07-29T17:30:06;1.92;;;1.60;;
41627;SDS011;27321;50.816;6.054;2023-07-29T17:33:08;3.03;;;1.17;;
41627;SDS011;27321;50.816;6.054;2023-07-29T17:36:09;1.63;;;1.40;;
41627;SDS011;27321;50.816;6.054;2023-07-29T17:39:10;0.93;;;0.90;;
41627;SDS011;27321;50.816;6.054;2023-07-29T17:42:11;1.95;;;1.45;;
41627;SDS011;27321;50.816;6.054;2023-07-29T17:45:12;1.02;;;1.02;;
41627;SDS011;27321;50.816;6.054;2023-07-29T17:48:13;3.33;;;1.00;;
41627;SDS011;27321;50.816;6.054;2023-07-29T17:51:14;1.42;;;1.20;;
41627;SDS011;27321;50.816;6.054;2023-07-29T17:57:16;1.23;;;1.13;;
41627;SDS011;27321;50.816;6.054;2023-07-29T18:00:17;1.33;;;1.02;;
41627;SDS011;27321;50.816;6.054;2023-07-29T18:03:19;1.23;;;1.15;;
41627;SDS011;27321;50.816;6.054;2023-07-29T18:06:20;1.10;;;1.00;;
41627;SDS011;27321;50.816;6.054;2023-07-29T18:09:21;1.83;;;1.45;;
41627;SDS011;27321;50.816;6.054;2023-07-29T18:12:22;1.35;;;1.15;;
41627;SDS011;27321;50.816;6.054;2023-07-29T18:15:26;1.40;;;1.30;;
41627;SDS011;27321;50.816;6.054;2023-07-29T18:18:27;1.40;;;1.30;;
41627;SDS011;27321;50.816;6.054;2023-07-29T18:21:29;2.17;;;1.38;;
41627;SDS011;27321;50.816;6.054;2023-07-29T18:24:31;2.80;;;1.30;;
41627;SDS011;27321;50.816;6.054;2023-07-29T18:27:32;1.80;;;1.35;;
41627;SDS011;27321;50.816;6.054;2023-07-29T18:30:33;1.10;;;1.00;;
41627;SDS011;27321;50.816;6.054;2023-07-29T18:33:35;1.50;;;1.00;;
41627;SDS011;27321;50.816;6.054;2023-07-29T18:36:36;1.10;;;1.10;;
41627;SDS011;27321;50.816;6.054;2023-07-29T18:39:37;1.70;;;1.08;;
41627;SDS011;27321;50.816;6.054;2023-07-29T18:42:38;1.67;;;1.20;;
41627;SDS011;27321;50.816;6.054;2023-07-29T18:45:39;1.85;;;1.13;;
41627;SDS011;27321;50.816;6.054;2023-07-29T18:48:41;0.98;;;0.98;;
41627;SDS011;27321;50.816;6.054;2023-07-29T18:51:42;1.13;;;1.00;;
41627;SDS011;27321;50.816;6.054;2023-07-29T18:54:43;0.80;;;0.80;;
41627;SDS011;27321;50.816;6.054;2023-07-29T18:57:45;1.27;;;1.17;;
41627;SDS011;27321;50.816;6.054;2023-07-29T19:00:47;1.23;;;1.10;;
41627;SDS011;27321;50.816;6.054;2023-07-29T19:03:49;1.20;;;1.10;;
41627;SDS011;27321;50.816;6.054;2023-07-29T19:06:50;0.80;;;0.77;;
41627;SDS011;27321;50.816;6.054;2023-07-29T19:09:55;1.17;;;1.10;;
41627;SDS011;27321;50.816;6.054;2023-07-29T19:12:57;1.38;;;1.27;;